Time;durP1;ratioP1;P1;durP2;ratioP2;P2;SDS_P1;SDS_P2;PMS_P1;PMS_P2;Temp;Humidity;BMP_temperature;BMP_pressure;BME280_temperature;BME280_humidity;BME280_pressure;Samples;Min_cycle;Max_cycle;Signal;HPM_P1;HPM_P2
2023/06/07 00:02:14;;;;;;;;;15.00;15.00;;;;;-147.17;100.00;-10214.00;5083815;27;51188;-60
2023/06/07 00:04:39;;;;;;;;;16.25;13.75;;;;;-147.17;100.00;-10214.00;5088321;27;51054;-59
2023/06/07 00:07:06;;;;;;;;;15.67;15.00;;;;;-147.17;100.00;-10214.00;5084982;27;51778;-60
2023/06/07 00:09:31;;;;;;;;;17.25;16.25;;;;;-147.17;100.00;-10462.09;5089926;27;51251;-60
2023/06/07 00:11:57;;;;;;;;;19.50;18.00;;;;;-147.17;100.00;-9717.81;5089687;27;52272;-60
2023/06/07 00:14:23;;;;;;;;;17.75;16.75;;;;;-147.17;100.00;-10710.16;5085762;27;51449;-61
2023/06/07 00:16:50;;;;;;;;;15.25;14.25;;;;;-147.17;100.00;-10462.09;5090502;27;51254;-61
2023/06/07 00:19:21;;;;;;;;;13.25;12.25;;;;;-147.17;100.00;-10710.16;5091768;27;51389;-60
2023/06/07 00:21:49;;;;;;;;;19.00;15.50;;;;;-147.17;100.00;-11206.22;5090722;27;52705;-60
2023/06/07 00:24:15;;;;;;;;;12.50;12.25;;;;;-147.17;100.00;-10958.19;5092487;27;51058;-60
2023/06/07 00:26:41;;;;;;;;;20.25;17.25;;;;;-147.17;100.00;-10710.16;5085197;27;51047;-60
2023/06/07 00:29:06;;;;;;;;;16.25;14.75;;;;;-147.17;100.00;-10710.16;5088558;27;51174;-60
2023/06/07 00:31:32;;;;;;;;;16.67;16.00;;;;;-147.17;100.00;-10958.19;5086297;27;51191;-59
2023/06/07 00:33:57;;;;;;;;;15.00;15.00;;;;;-147.17;100.00;-10710.16;5084055;27;51500;-59
2023/06/07 00:36:22;;;;;;;;;15.00;14.00;;;;;-147.17;100.00;-11206.22;5085365;27;51167;-59
2023/06/07 00:38:48;;;;;;;;;16.50;15.75;;;;;-147.17;100.00;-11702.25;5085508;27;51070;-59
2023/06/07 00:41:13;;;;;;;;;18.75;17.25;;;;;-147.17;100.00;-11206.22;5090533;27;51861;-59
2023/06/07 00:43:38;;;;;;;;;16.00;14.50;;;;;-147.17;100.00;-11206.22;5089609;27;50921;-60
2023/06/07 00:46:06;;;;;;;;;19.75;16.75;;;;;-147.17;100.00;-11702.25;5077765;27;50989;-60
2023/06/07 00:48:31;;;;;;;;;15.75;14.50;;;;;-147.17;100.00;-12198.19;5092617;27;51307;-60
2023/06/07 00:50:57;;;;;;;;;15.25;14.25;;;;;-147.17;100.00;-11950.22;5087307;27;51853;-60
2023/06/07 00:53:22;;;;;;;;;16.00;13.75;;;;;-147.17;100.00;-11950.22;5078306;27;51160;-60
2023/06/07 00:55:48;;;;;;;;;17.00;16.25;;;;;-147.17;100.00;-11950.22;5084265;27;51234;-60
2023/06/07 00:58:15;;;;;;;;;17.00;16.00;;;;;-147.17;100.00;-12694.06;5072649;27;51308;-60
2023/06/07 01:00:41;;;;;;;;;15.50;15.50;;;;;-147.17;100.00;-12198.19;5072603;27;51194;-60
2023/06/07 01:03:06;;;;;;;;;18.50;17.50;;;;;-147.17;100.00;-12446.13;5077152;27;51131;-60
2023/06/07 01:05:32;;;;;;;;;17.50;16.25;;;;;-147.17;100.00;-12198.19;5088426;27;51174;-60
2023/06/07 01:07:58;;;;;;;;;18.00;16.75;;;;;-147.17;100.00;-12198.19;5086947;27;51035;-59
2023/06/07 01:10:23;;;;;;;;;17.00;15.25;;;;;-147.17;100.00;-12941.97;5082238;27;51165;-59
2023/06/07 01:12:53;;;;;;;;;17.67;16.67;;;;;-147.17;100.00;-13189.88;5085730;27;51119;-61
2023/06/07 01:15:20;;;;;;;;;19.75;18.75;;;;;-147.17;100.00;-13437.75;5092486;27;51229;-60
2023/06/07 01:17:47;;;;;;;;;17.25;16.50;;;;;-147.17;100.00;-13685.63;5076851;27;51143;-60
2023/06/07 01:20:23;;;;;;;;;19.75;18.75;;;;;-147.17;100.00;-13437.75;5086132;27;51237;-60
2023/06/07 01:22:51;;;;;;;;;17.25;16.25;;;;;-147.17;100.00;-13437.75;5089683;27;51072;-61
2023/06/07 01:25:16;;;;;;;;;14.75;14.75;;;;;-147.17;100.00;-13437.75;5088071;27;51015;-61
2023/06/07 01:27:45;;;;;;;;;17.50;17.00;;;;;-147.17;100.00;-13685.63;5092588;27;51256;-62
2023/06/07 01:30:12;;;;;;;;;16.50;16.00;;;;;-147.17;100.00;-13933.50;5088317;27;52259;-61
2023/06/07 01:32:40;;;;;;;;;19.00;17.25;;;;;-147.17;100.00;-14181.31;5091306;27;51062;-61
2023/06/07 01:35:08;;;;;;;;;20.00;18.25;;;;;-147.17;100.00;-14181.31;5092458;27;50881;-62
2023/06/07 01:37:34;;;;;;;;;17.00;16.00;;;;;-147.17;100.00;-13933.50;5074582;27;51329;-61
2023/06/07 01:40:03;;;;;;;;;19.00;17.75;;;;;-147.17;100.00;-14181.31;5083002;27;51138;-61
2023/06/07 01:42:29;;;;;;;;;17.50;17.00;;;;;-147.17;100.00;-14181.31;5072829;27;50945;-61
2023/06/07 01:44:56;;;;;;;;;17.25;15.50;;;;;-147.17;100.00;-14429.16;5079973;27;51012;-61
2023/06/07 01:47:22;;;;;;;;;20.25;19.50;;;;;-147.17;100.00;-14429.16;5079483;27;51080;-60
2023/06/07 01:49:47;;;;;;;;;19.50;17.75;;;;;-147.17;100.00;-14181.31;5079352;27;52058;-61
2023/06/07 01:52:12;;;;;;;;;21.25;19.25;;;;;-147.17;100.00;-14429.16;5089478;27;51092;-61
2023/06/07 01:54:39;;;;;;;;;16.75;15.25;;;;;-147.17;100.00;-14924.75;5089535;27;51117;-61
2023/06/07 01:57:34;;;;;;;;;18.25;17.75;;;;;-147.17;100.00;-14924.75;5080107;27;51081;-60
2023/06/07 02:00:07;;;;;;;;;21.00;20.00;;;;;-147.17;100.00;-15420.25;5086684;27;51164;-61
2023/06/07 02:02:32;;;;;;;;;45.75;39.00;;;;;-147.17;100.00;-15420.25;5091882;27;50956;-61
2023/06/07 02:05:03;;;;;;;;;19.25;18.25;;;;;-147.17;100.00;-15172.50;5078189;27;51122;-62
2023/06/07 02:07:36;;;;;;;;;20.25;18.50;;;;;-147.17;100.00;-15420.25;5090418;27;51319;-62
2023/06/07 02:10:03;;;;;;;;;23.00;21.00;;;;;-147.17;100.00;-15420.25;5087490;27;51623;-59
2023/06/07 02:12:31;;;;;;;;;18.25;17.50;;;;;-147.17;100.00;-15668.00;5083507;27;51128;-61
2023/06/07 02:15:00;;;;;;;;;19.00;18.00;;;;;-147.17;100.00;-15668.00;5088133;27;51133;-61
2023/06/07 02:17:25;;;;;;;;;20.25;19.75;;;;;-147.17;100.00;-15668.00;5085831;27;51066;-61
2023/06/07 02:19:51;;;;;;;;;18.50;17.75;;;;;-147.17;100.00;-15668.00;5087221;27;51973;-61
2023/06/07 02:22:16;;;;;;;;;20.50;19.00;;;;;-147.17;100.00;-15668.00;5088907;27;50952;-61
2023/06/07 02:24:42;;;;;;;;;18.75;16.75;;;;;-147.17;100.00;-15668.00;5089912;27;51096;-61
2023/06/07 02:27:08;;;;;;;;;15.75;14.50;;;;;-147.17;100.00;-15917.19;5094541;27;51613;-61
2023/06/07 02:29:34;;;;;;;;;20.75;20.50;;;;;-147.17;100.00;-15915.72;5085678;27;51214;-61
2023/06/07 02:32:00;;;;;;;;;19.50;19.00;;;;;-147.17;100.00;-15917.19;5085120;27;50948;-61
2023/06/07 02:34:29;;;;;;;;;23.25;21.50;;;;;-147.17;100.00;-15917.19;5094472;27;51009;-62
2023/06/07 02:36:55;;;;;;;;;21.50;17.75;;;;;-147.17;100.00;-15917.19;5093373;27;50969;-60
2023/06/07 02:39:21;;;;;;;;;19.75;18.75;;;;;-147.17;100.00;-15917.19;5091454;27;51769;-61
2023/06/07 02:41:46;;;;;;;;;16.50;15.00;;;;;-147.17;100.00;-15917.19;5094513;27;51062;-60
2023/06/07 02:44:12;;;;;;;;;22.00;21.50;;;;;-147.17;100.00;-15917.19;5094792;27;51178;-61
2023/06/07 02:46:37;;;;;;;;;20.75;18.75;;;;;-147.17;100.00;-15917.19;5078064;27;51410;-61
2023/06/07 02:49:03;;;;;;;;;21.25;20.25;;;;;-147.17;100.00;-15917.19;5094860;27;51344;-61
2023/06/07 02:51:28;;;;;;;;;18.25;18.00;;;;;-147.17;100.00;-15917.19;5093281;27;51075;-60
2023/06/07 02:53:54;;;;;;;;;23.00;21.75;;;;;-147.17;100.00;-15917.19;5094620;27;51121;-61
2023/06/07 02:56:20;;;;;;;;;16.75;16.75;;;;;-147.17;100.00;-15917.19;5089952;27;50971;-61
2023/06/07 02:58:45;;;;;;;;;20.50;20.50;;;;;-147.17;100.00;-15917.19;5075240;28;50915;-60
2023/06/07 03:01:11;;;;;;;;;20.25;19.75;;;;;-147.17;100.00;-15917.19;5083751;27;51115;-61
2023/06/07 03:03:36;;;;;;;;;21.25;19.75;;;;;-147.17;100.00;-15917.19;5081515;27;51172;-61
2023/06/07 03:06:04;;;;;;;;;21.00;19.75;;;;;-147.17;100.00;-15917.19;5094393;27;51443;-61
2023/06/07 03:08:30;;;;;;;;;23.50;19.25;;;;;-147.17;100.00;-15917.19;5095729;27;51807;-62
2023/06/07 03:10:55;;;;;;;;;22.75;19.75;;;;;-147.17;100.00;-15917.19;5093853;27;51003;-61
2023/06/07 03:13:20;;;;;;;;;21.25;20.25;;;;;-147.17;100.00;-15917.19;5085455;27;51290;-60
2023/06/07 03:15:46;;;;;;;;;20.50;19.25;;;;;-147.17;100.00;-15917.19;5085329;27;51351;-61
2023/06/07 03:18:15;;;;;;;;;21.25;20.00;;;;;-147.17;100.00;-15917.19;5085193;27;52012;-60
2023/06/07 03:20:44;;;;;;;;;22.75;21.25;;;;;-147.17;100.00;-15917.19;5093279;27;50927;-60
2023/06/07 03:23:10;;;;;;;;;23.25;20.75;;;;;-147.17;100.00;-15917.19;5094166;27;51099;-60
2023/06/07 03:25:36;;;;;;;;;21.50;19.50;;;;;-147.17;100.00;-15917.19;5092650;27;51040;-61
2023/06/07 03:28:02;;;;;;;;;22.75;21.00;;;;;-147.17;100.00;-15917.19;5092872;27;53118;-61
2023/06/07 03:30:28;;;;;;;;;21.25;20.00;;;;;-147.17;100.00;-15917.19;5094024;27;51072;-61
2023/06/07 03:32:53;;;;;;;;;21.50;19.25;;;;;-147.17;100.00;-15917.19;5090653;27;51126;-61
2023/06/07 03:35:19;;;;;;;;;20.75;19.25;;;;;-147.17;100.00;-15917.19;5089835;27;51300;-61
2023/06/07 03:37:44;;;;;;;;;24.50;23.25;;;;;-147.17;100.00;-15917.19;5080502;27;52367;-61
2023/06/07 03:40:10;;;;;;;;;23.50;22.50;;;;;-147.17;100.00;-15917.19;5091682;27;51123;-61
2023/06/07 03:42:36;;;;;;;;;21.00;20.00;;;;;-147.17;100.00;-15917.19;5093985;27;51101;-61
2023/06/07 03:45:02;;;;;;;;;26.00;23.75;;;;;-147.17;100.00;-15917.19;5092302;27;51491;-60
2023/06/07 03:47:27;;;;;;;;;22.00;22.00;;;;;-147.17;100.00;-15917.19;5080601;27;51774;-60
2023/06/07 03:49:53;;;;;;;;;23.75;22.75;;;;;-147.17;100.00;-15917.19;5091667;27;51456;-61
2023/06/07 03:52:18;;;;;;;;;22.50;21.50;;;;;-147.17;100.00;-15917.19;5080501;27;51523;-61
2023/06/07 03:54:44;;;;;;;;;21.75;21.25;;;;;-147.17;100.00;-15917.19;5079125;27;53784;-61
2023/06/07 03:57:10;;;;;;;;;37.50;31.75;;;;;-147.17;100.00;-15917.19;5088291;27;51070;-60
2023/06/07 03:59:36;;;;;;;;;25.50;23.50;;;;;-147.17;100.00;-15917.19;5094338;27;51193;-63
2023/06/07 04:02:03;;;;;;;;;22.50;21.00;;;;;-147.17;100.00;-15917.19;5094629;27;51268;-61
2023/06/07 04:04:29;;;;;;;;;24.75;24.00;;;;;-147.17;100.00;-15917.19;5085416;27;51234;-60
2023/06/07 04:06:54;;;;;;;;;22.00;21.50;;;;;-147.17;100.00;-15917.19;5087104;27;51083;-60
2023/06/07 04:09:20;;;;;;;;;27.25;24.00;;;;;-147.17;100.00;-15917.19;5087024;27;51091;-60
2023/06/07 04:11:45;;;;;;;;;25.00;25.00;;;;;-147.17;100.00;-15917.19;5093344;27;51161;-59
2023/06/07 04:14:11;;;;;;;;;26.50;24.75;;;;;-147.17;100.00;-15917.19;5089507;27;50910;-59
2023/06/07 04:16:37;;;;;;;;;27.25;26.00;;;;;-147.17;100.00;-15917.19;5082875;27;51085;-60
2023/06/07 04:19:02;;;;;;;;;24.00;23.25;;;;;-147.17;100.00;-15917.19;5093658;27;51079;-60
2023/06/07 04:21:27;;;;;;;;;26.75;25.75;;;;;-147.17;100.00;-15917.19;5077141;27;51122;-60
2023/06/07 04:23:53;;;;;;;;;27.25;24.50;;;;;-147.17;100.00;-15917.19;5076841;27;51102;-60
2023/06/07 04:26:21;;;;;;;;;29.00;28.00;;;;;-147.17;100.00;-15917.19;5091030;27;52123;-60
2023/06/07 04:28:47;;;;;;;;;26.75;25.00;;;;;-147.17;100.00;-15917.19;5092704;27;51660;-60
2023/06/07 04:31:13;;;;;;;;;30.50;27.00;;;;;-147.17;100.00;-15917.19;5092176;27;51100;-60
2023/06/07 04:33:39;;;;;;;;;29.00;26.25;;;;;-147.17;100.00;-15917.19;5092941;27;50968;-60
2023/06/07 04:36:04;;;;;;;;;26.75;24.25;;;;;-147.17;100.00;-15917.19;5088868;27;51238;-60
2023/06/07 04:38:30;;;;;;;;;27.50;24.75;;;;;-147.17;100.00;-15917.19;5086507;27;51394;-61
2023/06/07 04:40:56;;;;;;;;;26.75;25.00;;;;;-147.17;100.00;-15917.19;5079216;27;51179;-61
2023/06/07 04:43:23;;;;;;;;;31.00;28.25;;;;;-147.17;100.00;-15917.19;5089451;27;51298;-60
2023/06/07 04:45:54;;;;;;;;;28.25;26.75;;;;;-147.17;100.00;-15917.19;5093964;27;52992;-61
2023/06/07 04:48:25;;;;;;;;;31.00;28.25;;;;;-147.17;100.00;-15917.19;5092337;27;50981;-61
2023/06/07 04:50:51;;;;;;;;;34.25;29.75;;;;;-147.17;100.00;-15917.19;5092837;27;51136;-60
2023/06/07 04:53:21;;;;;;;;;27.75;27.00;;;;;-147.17;100.00;-15917.19;5087543;27;51143;-60
2023/06/07 04:55:50;;;;;;;;;31.75;29.25;;;;;-147.17;100.00;-15917.19;5086673;27;51753;-60
2023/06/07 04:58:16;;;;;;;;;29.50;27.75;;;;;-147.17;100.00;-15917.19;5088373;27;51129;-60
2023/06/07 05:00:43;;;;;;;;;31.50;28.25;;;;;-147.17;100.00;-15917.19;5090101;27;51281;-60
2023/06/07 05:03:08;;;;;;;;;36.00;31.25;;;;;-147.17;100.00;-15917.19;5090477;27;51091;-61
2023/06/07 05:05:34;;;;;;;;;30.00;25.00;;;;;-147.17;100.00;-15917.19;5091541;27;51981;-60
2023/06/07 05:08:00;;;;;;;;;35.50;31.25;;;;;-147.17;100.00;-15917.19;5091543;27;51037;-59
2023/06/07 05:10:26;;;;;;;;;27.25;27.00;;;;;-147.17;100.00;-15917.19;5083281;27;51499;-60
2023/06/07 05:12:51;;;;;;;;;25.75;25.25;;;;;-147.17;100.00;-15917.19;5078607;27;51209;-61
2023/06/07 05:15:16;;;;;;;;;34.50;29.25;;;;;-147.17;100.00;-15917.19;5088995;27;51874;-61
2023/06/07 05:17:44;;;;;;;;;32.75;29.50;;;;;-147.17;100.00;-15917.19;5089944;27;51009;-60
2023/06/07 05:20:12;;;;;;;;;32.75;30.00;;;;;-147.17;100.00;-15917.19;5079953;27;51022;-60
2023/06/07 05:22:40;;;;;;;;;34.25;30.50;;;;;-147.17;100.00;-15917.19;5092773;27;51349;-60
2023/06/07 05:25:08;;;;;;;;;29.25;26.75;;;;;-147.17;100.00;-15917.19;5092008;27;52404;-60
2023/06/07 05:27:34;;;;;;;;;33.00;27.50;;;;;-147.17;100.00;-15917.19;5091048;27;51023;-61
2023/06/07 05:29:59;;;;;;;;;26.75;25.75;;;;;-147.17;100.00;-15917.19;5081900;27;51141;-60
2023/06/07 05:32:24;;;;;;;;;26.75;26.25;;;;;-147.17;100.00;-15917.19;5073807;27;51084;-60
2023/06/07 05:34:51;;;;;;;;;41.75;36.25;;;;;-147.17;100.00;-15917.19;5084684;27;52037;-61
2023/06/07 05:37:18;;;;;;;;;36.25;32.00;;;;;-147.17;100.00;-15917.19;5092454;27;51282;-60
2023/06/07 05:39:45;;;;;;;;;33.75;29.25;;;;;-147.17;100.00;-15917.19;5092829;27;51094;-60
2023/06/07 05:42:11;;;;;;;;;34.50;31.50;;;;;-147.17;100.00;-15917.19;5085792;27;50993;-60
2023/06/07 05:44:36;;;;;;;;;42.00;36.75;;;;;-147.17;100.00;-15917.19;5073642;27;51404;-60
2023/06/07 05:47:02;;;;;;;;;34.50;30.00;;;;;-147.17;100.00;-15917.19;5072861;28;50964;-61
2023/06/07 05:49:27;;;;;;;;;30.50;27.75;;;;;-147.17;100.00;-15917.19;5072682;27;51574;-61
2023/06/07 05:51:52;;;;;;;;;32.50;29.75;;;;;-147.17;100.00;-15917.19;5090267;27;51247;-61
2023/06/07 05:54:18;;;;;;;;;36.75;32.50;;;;;-147.17;100.00;-15917.19;5094462;27;52140;-60
2023/06/07 05:56:43;;;;;;;;;33.25;30.00;;;;;-147.17;100.00;-15917.19;5091464;27;50914;-60
2023/06/07 05:59:08;;;;;;;;;36.25;33.50;;;;;-147.17;100.00;-15917.19;5078414;27;51493;-60
2023/06/07 06:01:34;;;;;;;;;31.75;30.00;;;;;-147.17;100.00;-15917.19;5085144;27;51125;-60
2023/06/07 06:04:01;;;;;;;;;37.50;33.25;;;;;-147.17;100.00;-15668.00;5086055;27;50989;-60
2023/06/07 06:06:26;;;;;;;;;28.25;26.00;;;;;-147.17;100.00;-13933.50;5083624;27;51111;-61
2023/06/07 06:08:52;;;;;;;;;30.00;27.00;;;;;-147.17;100.00;-12198.19;5088547;27;51095;-60
2023/06/07 06:11:17;;;;;;;;;30.75;27.50;;;;;-147.17;100.00;-7484.09;5095174;27;51411;-59
2023/06/07 06:13:43;;;;;;;;;32.00;29.50;;;;;-147.17;100.00;-5745.88;5094707;27;51295;-60
2023/06/07 06:16:08;;;;;;;;;32.50;27.75;;;;;-147.17;100.00;-4255.34;5079171;27;52061;-60
2023/06/07 06:18:34;;;;;;;;;30.75;28.25;;;;;-147.17;100.00;-2267.06;5082928;27;51310;-60
2023/06/07 06:20:59;;;;;;;;;27.25;26.00;;;;;-147.17;100.00;-277.75;5100506;27;51174;-61
2023/06/07 06:23:25;;;;;;;;;63.75;50.50;;;;;-147.17;100.00;3206.00;5094687;27;52210;-60
2023/06/07 06:25:50;;;;;;;;;39.50;34.75;;;;;-147.17;100.00;8437.53;5079426;27;51185;-60
2023/06/07 06:28:16;;;;;;;;;33.00;29.75;;;;;-147.17;100.00;12178.69;5087149;27;50874;-60
2023/06/07 06:30:42;;;;;;;;;28.00;27.00;;;;;-147.17;100.00;13176.94;5085771;27;51369;-61
2023/06/07 06:33:08;;;;;;;;;28.50;27.00;;;;;-147.17;100.00;16173.25;5089727;27;53539;-61
2023/06/07 06:35:35;;;;;;;;;29.25;28.50;;;;;-147.17;100.00;16922.66;5085516;27;51019;-60
2023/06/07 06:38:01;;;;;;;;;32.50;28.50;;;;;-147.17;100.00;18421.97;5076304;27;51410;-59
2023/06/07 06:40:27;;;;;;;;;22.50;22.50;;;;;-147.17;100.00;17172.50;5087666;27;51143;-59
2023/06/07 06:42:53;;;;;;;;;27.25;27.25;;;;;-147.17;100.00;16173.25;5079281;27;51782;-60
2023/06/07 06:45:19;;;;;;;;;32.25;30.75;;;;;-147.17;100.00;13925.81;5077865;27;51050;-62
2023/06/07 06:47:44;;;;;;;;;29.75;29.25;;;;;-147.17;100.00;10432.38;5088924;27;51404;-62
2023/06/07 06:50:13;;;;;;;;;29.00;28.75;;;;;-147.17;100.00;10182.97;5080216;27;51300;-61
2023/06/07 06:52:40;;;;;;;;;33.50;31.00;;;;;-147.17;100.00;11430.19;5083449;27;51127;-60
2023/06/07 06:55:06;;;;;;;;;31.25;30.25;;;;;-147.17;100.00;14674.81;5090602;27;51008;-60
2023/06/07 06:57:32;;;;;;;;;28.25;26.75;;;;;-147.17;100.00;14674.81;5084648;27;51253;-60
2023/06/07 06:59:58;;;;;;;;;29.25;29.00;;;;;-147.17;100.00;13426.53;5088107;27;51189;-61
2023/06/07 07:02:23;;;;;;;;;28.00;26.50;;;;;-147.17;100.00;14175.44;5089210;27;51103;-61
2023/06/07 07:04:49;;;;;;;;;30.00;28.50;;;;;-147.17;100.00;14674.81;5081605;27;51417;-60
2023/06/07 07:07:14;;;;;;;;;29.50;28.00;;;;;-147.17;100.00;14425.13;5085803;27;51979;-60
2023/06/07 07:09:40;;;;;;;;;30.25;29.25;;;;;-147.17;100.00;13426.53;5089444;27;51026;-62
2023/06/07 07:12:06;;;;;;;;;29.25;28.25;;;;;-147.17;100.00;11430.19;5089949;27;51920;-61
2023/06/07 07:14:32;;;;;;;;;31.00;29.75;;;;;-147.17;100.00;9684.19;5086645;27;51252;-61
2023/06/07 07:16:57;;;;;;;;;26.25;26.25;;;;;-147.17;100.00;8188.25;5090923;27;51107;-61
2023/06/07 07:19:23;;;;;;;;;29.50;29.00;;;;;-147.17;100.00;6692.91;5084479;27;51240;-61
2023/06/07 07:21:48;;;;;;;;;31.25;29.50;;;;;-147.17;100.00;5198.13;5084660;27;52167;-61
2023/06/07 07:24:14;;;;;;;;;28.75;28.00;;;;;-147.17;100.00;4201.94;5082742;27;51375;-61
2023/06/07 07:26:39;;;;;;;;;32.25;30.25;;;;;-147.17;100.00;2957.06;5088577;27;51070;-61
2023/06/07 07:29:05;;;;;;;;;37.00;31.75;;;;;-147.17;100.00;1712.56;5078859;27;51057;-60
2023/06/07 07:31:33;;;;;;;;;35.25;31.25;;;;;-147.17;100.00;717.28;5084803;27;51974;-60
2023/06/07 07:34:02;;;;;;;;;30.50;28.00;;;;;-147.17;100.00;1214.91;5088905;27;51054;-60
2023/06/07 07:36:28;;;;;;;;;25.75;25.50;;;;;-147.17;100.00;468.50;5093942;27;50983;-60
2023/06/07 07:38:54;;;;;;;;;34.50;30.50;;;;;-147.17;100.00;-526.47;5093130;27;51264;-62
2023/06/07 07:41:20;;;;;;;;;30.25;28.50;;;;;-147.17;100.00;-1023.88;5093612;27;51642;-60
2023/06/07 07:43:45;;;;;;;;;30.50;27.50;;;;;-147.17;100.00;-526.47;5094594;27;50952;-62
2023/06/07 07:46:13;;;;;;;;;30.00;29.50;;;;;-147.17;100.00;-526.47;5082510;27;51178;-62
2023/06/07 07:48:38;;;;;;;;;58.25;47.75;;;;;-147.17;100.00;-1272.53;5076896;27;51209;-61
2023/06/07 07:51:04;;;;;;;;;25.50;24.00;;;;;-147.17;100.00;-1769.84;5076951;27;52275;-61
2023/06/07 07:53:29;;;;;;;;;29.50;29.25;;;;;-147.17;100.00;-1521.19;5093320;27;51593;-62
2023/06/07 07:55:55;;;;;;;;;31.25;28.25;;;;;-147.17;100.00;-1272.53;5092712;27;51805;-62
2023/06/07 07:58:20;;;;;;;;;27.00;25.25;;;;;-147.17;100.00;-1272.53;5089159;27;50837;-61
2023/06/07 08:00:45;;;;;;;;;35.00;31.00;;;;;-147.17;100.00;-1272.53;5075347;27;51013;-60
2023/06/07 08:03:11;;;;;;;;;25.75;25.75;;;;;-147.17;100.00;-526.47;5074195;27;51083;-60
2023/06/07 08:05:36;;;;;;;;;28.00;25.50;;;;;-147.17;100.00;-277.75;5075545;27;51063;-60
2023/06/07 08:08:02;;;;;;;;;25.25;24.25;;;;;-147.17;100.00;219.72;5061901;27;53057;-60
2023/06/07 08:10:28;;;;;;;;;37.25;32.50;;;;;-147.17;100.00;1712.56;5112787;27;51564;-61
2023/06/07 08:12:53;;;;;;;;;46.00;38.75;;;;;-147.17;100.00;2957.06;5096393;27;51077;-61
2023/06/07 08:15:19;;;;;;;;;28.00;25.50;;;;;-147.17;100.00;7191.28;5097864;27;51319;-62
2023/06/07 08:17:44;;;;;;;;;26.00;24.50;;;;;-147.17;100.00;13426.53;5095325;27;51260;-62
2023/06/07 08:20:10;;;;;;;;;25.00;21.50;;;;;-147.17;100.00;17922.16;5092557;27;52153;-62
2023/06/07 08:22:38;;;;;;;;;21.75;21.25;;;;;-147.17;100.00;21422.31;5078382;27;51281;-62
2023/06/07 08:25:05;;;;;;;;;24.50;22.50;;;;;-147.17;100.00;28774.69;5091286;27;51176;-61
2023/06/07 08:27:31;;;;;;;;;23.75;23.75;;;;;-147.17;100.00;33556.56;5085279;27;51260;-62
2023/06/07 08:29:56;;;;;;;;;23.00;21.75;;;;;-147.17;100.00;36082.09;5080323;27;50989;-62
2023/06/07 08:32:22;;;;;;;;;21.00;21.00;;;;;-147.17;100.00;37180.63;5081661;27;51066;-62
2023/06/07 08:34:47;;;;;;;;;18.25;18.25;;;;;-147.17;100.00;38257.91;5089763;27;51199;-60
2023/06/07 08:37:13;;;;;;;;;24.00;23.25;;;;;-147.17;100.00;39977.47;5084066;27;51336;-59
2023/06/07 08:39:38;;;;;;;;;17.25;17.25;;;;;-147.17;100.00;40984.81;5076855;27;52084;-59
2023/06/07 08:42:03;;;;;;;;;26.00;25.75;;;;;-147.17;100.00;42196.72;5093061;27;50917;-60
2023/06/07 08:44:30;;;;;;;;;27.75;26.25;;;;;-147.17;100.00;42721.28;5080061;27;51230;-59
2023/06/07 08:46:56;;;;;;;;;26.00;25.00;;;;;-147.17;100.00;42430.50;5081484;27;51342;-59
2023/06/07 08:49:24;;;;;;;;;26.50;24.25;;;;;-147.17;100.00;42693.75;5088542;27;51657;-60
2023/06/07 08:51:51;;;;;;;;;25.00;22.25;;;;;-147.17;100.00;42854.88;5077372;27;51148;-60
2023/06/07 08:54:23;;;;;;;;;21.25;20.25;;;;;-147.17;100.00;42681.97;5090327;27;51116;-61
2023/06/07 08:56:49;;;;;;;;;20.50;19.50;;;;;-147.17;100.00;43715.56;5091708;27;51771;-60
2023/06/07 08:59:16;;;;;;;;;22.75;21.00;;;;;-147.17;100.00;42835.22;5090131;27;50979;-59
2023/06/07 09:01:43;;;;;;;;;22.75;21.25;;;;;-147.17;100.00;42870.59;5082925;27;50979;-60
2023/06/07 09:04:09;;;;;;;;;21.75;20.75;;;;;-147.17;100.00;42988.47;5089409;27;51191;-60
2023/06/07 09:06:35;;;;;;;;;22.25;22.25;;;;;-147.17;100.00;43029.75;5082236;27;51281;-60
2023/06/07 09:09:03;;;;;;;;;21.50;21.50;;;;;-147.17;100.00;43135.84;5090440;27;51236;-61
2023/06/07 09:11:30;;;;;;;;;20.25;19.25;;;;;-147.17;100.00;43310.75;5084573;27;51189;-59
2023/06/07 09:13:56;;;;;;;;;23.25;20.25;;;;;-147.17;100.00;43827.59;5086111;27;50966;-60
2023/06/07 09:16:21;;;;;;;;;19.00;19.00;;;;;-147.17;100.00;43601.56;5091233;27;51869;-60
2023/06/07 09:18:53;;;;;;;;;21.50;20.00;;;;;-147.17;100.00;43452.22;5088224;27;51025;-60
2023/06/07 09:21:21;;;;;;;;;23.25;22.00;;;;;-147.17;100.00;43139.78;5086486;27;51105;-60
2023/06/07 09:23:47;;;;;;;;;19.00;18.00;;;;;-147.17;100.00;43448.28;5091555;27;50873;-60
2023/06/07 09:26:14;;;;;;;;;20.00;19.75;;;;;-147.17;100.00;43914.06;5092273;27;51321;-60
2023/06/07 09:28:40;;;;;;;;;24.00;22.50;;;;;-147.17;100.00;43648.75;5084773;27;51716;-60
2023/06/07 09:31:05;;;;;;;;;21.25;20.00;;;;;-147.17;100.00;43723.41;5077120;27;51193;-59
2023/06/07 09:33:35;;;;;;;;;17.33;16.33;;;;;-147.17;100.00;43389.34;5089004;27;51371;-59
2023/06/07 09:36:05;;;;;;;;;21.50;21.50;;;;;-147.17;100.00;43296.97;5089743;27;51407;-60
2023/06/07 09:38:31;;;;;;;;;46.00;38.00;;;;;-147.17;100.00;43137.81;5067459;27;52746;-60
2023/06/07 09:41:01;;;;;;;;;21.00;21.00;;;;;-147.17;100.00;42917.75;5088596;27;51226;-61
2023/06/07 09:43:40;;;;;;;;;20.25;19.00;;;;;-147.17;100.00;43055.28;5087185;27;51174;-61
2023/06/07 09:46:05;;;;;;;;;19.00;18.75;;;;;-147.17;100.00;43263.59;5079566;27;51163;-62
2023/06/07 09:48:42;;;;;;;;;18.75;18.75;;;;;-147.17;100.00;43452.22;5085231;27;52345;-62
2023/06/07 09:51:09;;;;;;;;;20.50;20.00;;;;;-147.17;100.00;43839.38;5080183;27;51189;-60
2023/06/07 09:53:54;;;;;;;;;21.25;21.25;;;;;-147.17;100.00;44470.28;5078867;27;51269;-61
2023/06/07 09:56:24;;;;;;;;;21.75;21.00;;;;;-147.17;100.00;44769.06;5084663;27;51353;-61
2023/06/07 09:59:06;;;;;;;;;16.25;16.25;;;;;-147.17;100.00;45191.75;5076757;27;51331;-61
2023/06/07 10:01:42;;;;;;;;;20.50;19.75;;;;;-147.17;100.00;45675.41;5078976;27;50988;-62
2023/06/07 10:04:08;;;;;;;;;18.75;18.25;;;;;-147.17;100.00;45702.94;5085597;27;51331;-62
2023/06/07 10:06:39;;;;;;;;;17.50;17.50;;;;;-147.17;100.00;45463.06;5080731;27;52036;-62
2023/06/07 10:09:05;;;;;;;;;17.75;17.75;;;;;-147.17;100.00;45372.63;5086908;27;53613;-62
2023/06/07 10:11:32;;;;;;;;;18.50;17.00;;;;;-147.17;100.00;45197.63;5081732;27;51007;-62
2023/06/07 10:14:06;;;;;;;;;17.75;17.25;;;;;-147.17;100.00;45443.41;5086888;27;51215;-62
2023/06/07 10:16:36;;;;;;;;;21.00;18.75;;;;;-147.17;100.00;45297.91;5089023;27;50903;-61
2023/06/07 10:19:10;;;;;;;;;21.25;21.00;;;;;-147.17;100.00;44712.06;5082894;27;53101;-59
2023/06/07 10:21:43;;;;;;;;;20.50;20.00;;;;;-147.17;100.00;44425.09;5071730;28;50895;-61
2023/06/07 10:24:13;;;;;;;;;25.25;24.25;;;;;-147.17;100.00;44411.31;5081398;27;50992;-60
2023/06/07 10:26:57;;;;;;;;;20.25;20.25;;;;;-147.17;100.00;45032.50;5083372;27;51196;-60
2023/06/07 10:29:35;;;;;;;;;19.25;18.50;;;;;-147.17;100.00;46062.75;5089681;27;51897;-60
2023/06/07 10:32:08;;;;;;;;;20.75;20.25;;;;;-147.17;100.00;46688.13;5080837;27;51960;-62
2023/06/07 10:34:36;;;;;;;;;26.75;22.75;;;;;-147.17;100.00;47105.09;5089697;27;51199;-60
2023/06/07 10:37:02;;;;;;;;;20.50;20.25;;;;;-147.17;100.00;47260.50;5086724;27;50841;-60
2023/06/07 10:39:28;;;;;;;;;19.50;19.50;;;;;-147.17;100.00;47484.75;5084064;27;51481;-59
2023/06/07 10:41:54;;;;;;;;;23.25;23.00;;;;;-147.17;100.00;47632.28;5088218;27;52898;-59
2023/06/07 10:44:19;;;;;;;;;19.50;19.00;;;;;-147.17;100.00;47695.22;5090152;27;51094;-59
2023/06/07 10:46:45;;;;;;;;;19.75;19.25;;;;;-147.17;100.00;47744.41;5092791;27;51347;-60
2023/06/07 10:49:35;;;;;;;;;18.75;18.75;;;;;-147.17;100.00;47720.81;5082082;27;51803;-59